Main page
METAR-TAF:

METAR-TAF

Airports :

Vilnius Airport

Vilnius, Lithuania

latitude: 54-38N, longitude: 025-06E, elevation: 162 m

Current weather observation

The report was made 20 minutes ago, at 05:50 UTC
Wind 5 kt from the West/Northwest, varying between West/Southwest and Northwest
Temperature 9°C
Humidity 93%
Pressure 1019 hPa
Visibility 10 km or more
Broken clouds at a height of 400 ft

METAR: EYVI 260550Z 29005KT 250V310 9999 BKN004 09/08 Q1019 NOSIG

Time: 09:10 (06:10 UTC)

Forecast

The report was made 1 hour and 10 minutes ago, at 05:00 UTC
Forecast valid from 26 at 06 UTC to 27 at 06 UTC
Wind 8 kt from the North/Northwest
Visibility: 9000 m
Temporary
from 26 at 06 UTC to 26 at 08 UTC
Broken clouds at a height of 500 ft
Temporary
from 27 at 00 UTC to 27 at 06 UTC
Visibility: 5000 m
Broken clouds at a height of 500 ft
mist

TAF: EYVI 260500Z 2606/2706 34008KT 9000 NSC TEMPO 2606/2608 BKN005 TEMPO 2700/2706 5000 BR BKN005

Weather observations and forecasts of more than 4000 airports (METAR and TAF reports).

The available stations are represented by yellow and red dots on the map.

Hover mouse over dot to see the name of the station.

Then click to see weather observations and forecasts.

To change the map : click on the green buttons with a black cross to zoom in, on the green button with a dash to zoom out, or on the green arrows for adjacent maps.


METAR-TAF: